createdAt,value
2023-03-30T00:03:19.470Z,8.70
2023-03-30T00:08:28.314Z,8.70
2023-03-30T00:13:34.594Z,8.60
2023-03-30T00:18:42.209Z,8.50
2023-03-30T00:23:47.994Z,8.40
2023-03-30T00:28:52.813Z,8.40
2023-03-30T00:33:56.080Z,8.40
2023-03-30T00:39:01.428Z,8.40
2023-03-30T00:44:08.233Z,8.50
2023-03-30T00:49:12.202Z,8.40
2023-03-30T00:54:18.859Z,8.50
2023-03-30T00:59:23.547Z,8.50
2023-03-30T01:04:28.409Z,8.50
2023-03-30T01:09:32.028Z,8.50
2023-03-30T01:14:37.825Z,8.50
2023-03-30T01:20:10.068Z,8.60
2023-03-30T01:25:45.246Z,8.60
2023-03-30T01:31:14.848Z,8.50
2023-03-30T01:36:38.450Z,8.50
2023-03-30T01:41:51.956Z,8.50
2023-03-30T01:47:00.541Z,8.40
2023-03-30T01:52:12.079Z,8.40
2023-03-30T01:57:19.966Z,8.30
2023-03-30T02:02:26.304Z,8.40
2023-03-30T02:07:32.710Z,8.40
2023-03-30T02:12:38.449Z,8.40
2023-03-30T02:17:42.428Z,8.40
2023-03-30T02:22:46.643Z,8.40
2023-03-30T02:27:51.676Z,8.40
2023-03-30T02:32:56.917Z,8.40
2023-03-30T02:38:30.640Z,8.40
2023-03-30T02:43:44.529Z,8.40
2023-03-30T02:48:57.338Z,8.60
2023-03-30T02:54:10.315Z,8.50
2023-03-30T02:59:46.860Z,8.50
2023-03-30T03:04:53.908Z,8.40
2023-03-30T03:10:08.625Z,8.50
2023-03-30T03:15:13.987Z,8.40
2023-03-30T03:20:31.152Z,8.40
2023-03-30T03:25:37.080Z,8.50
2023-03-30T03:30:42.865Z,8.50
2023-03-30T03:35:54.348Z,8.50
2023-03-30T03:40:59.793Z,8.50
2023-03-30T03:46:06.132Z,8.40
2023-03-30T03:51:09.928Z,8.40
2023-03-30T03:56:14.850Z,8.50
2023-03-30T04:01:19.882Z,8.50
2023-03-30T04:06:23.696Z,8.50
2023-03-30T04:11:27.407Z,8.60
2023-03-30T04:16:46.638Z,8.70
2023-03-30T04:21:59.306Z,8.80
2023-03-30T04:27:35.030Z,8.80
2023-03-30T04:33:03.873Z,8.90
2023-03-30T04:38:28.103Z,8.90
2023-03-30T04:43:40.801Z,8.90
2023-03-30T04:49:03.902Z,8.80
2023-03-30T04:54:07.603Z,8.80
2023-03-30T04:59:46.850Z,8.90
2023-03-30T05:05:28.385Z,9.00
2023-03-30T05:10:52.259Z,9.00
2023-03-30T05:16:22.131Z,9.20
2023-03-30T05:21:44.296Z,9.20
2023-03-30T05:27:06.993Z,9.20
2023-03-30T05:32:31.241Z,9.40
2023-03-30T05:38:14.776Z,9.60
2023-03-30T05:43:44.801Z,9.50
2023-03-30T05:48:55.349Z,9.50
2023-03-30T05:54:20.009Z,9.70
2023-03-30T05:59:37.325Z,9.60
2023-03-30T06:04:53.907Z,9.60
2023-03-30T06:10:01.434Z,9.70
2023-03-30T06:15:09.119Z,9.80
2023-03-30T06:20:25.079Z,9.90
2023-03-30T06:25:31.071Z,10.10
2023-03-30T06:30:35.117Z,10.50
2023-03-30T06:35:46.217Z,10.80
2023-03-30T06:40:51.715Z,11.10
2023-03-30T06:45:58.525Z,11.10
2023-03-30T06:51:04.554Z,11.10
2023-03-30T06:56:10.144Z,11.00
2023-03-30T07:01:21.572Z,11.00
2023-03-30T07:06:47.081Z,11.00
2023-03-30T07:11:53.893Z,11.20
2023-03-30T07:16:59.401Z,11.50
2023-03-30T07:22:03.778Z,13.20
2023-03-30T07:27:09.405Z,13.30
2023-03-30T07:32:14.406Z,13.20
2023-03-30T07:37:20.754Z,13.10
2023-03-30T07:42:27.072Z,15.30
2023-03-30T07:47:31.706Z,16.90
2023-03-30T07:52:35.506Z,16.70
2023-03-30T07:57:42.356Z,15.90
2023-03-30T08:02:45.889Z,17.20
2023-03-30T08:07:53.723Z,18.10
2023-03-30T08:13:04.708Z,19.80
2023-03-30T08:18:08.496Z,20.60
2023-03-30T08:23:13.716Z,20.30
2023-03-30T08:28:18.869Z,21.40
2023-03-30T08:33:25.194Z,21.40
2023-03-30T08:38:29.426Z,21.70
2023-03-30T08:43:44.980Z,22.50
2023-03-30T08:48:50.495Z,21.60
2023-03-30T08:53:57.566Z,22.30
2023-03-30T08:59:12.574Z,22.10
2023-03-30T09:04:19.247Z,21.40
2023-03-30T09:09:24.982Z,20.70
2023-03-30T09:14:35.586Z,20.30
2023-03-30T09:19:51.000Z,19.90
2023-03-30T09:24:55.586Z,19.40
2023-03-30T09:30:09.245Z,19.50
2023-03-30T09:35:16.094Z,19.60
2023-03-30T09:40:32.622Z,19.50
2023-03-30T09:45:39.695Z,19.00
2023-03-30T09:50:45.475Z,19.20
2023-03-30T09:55:59.884Z,19.60
2023-03-30T10:01:09.220Z,19.70
2023-03-30T10:06:17.111Z,19.00
2023-03-30T10:11:31.245Z,19.10
2023-03-30T10:16:36.935Z,19.00
2023-03-30T10:21:47.404Z,19.30
2023-03-30T10:26:53.902Z,18.80
2023-03-30T10:32:02.386Z,19.00
2023-03-30T10:37:10.873Z,19.20
2023-03-30T10:42:17.847Z,19.00
2023-03-30T10:47:59.464Z,19.20
2023-03-30T10:53:17.632Z,19.40
2023-03-30T10:58:40.714Z,19.60
2023-03-30T11:03:52.023Z,20.00
2023-03-30T11:08:58.878Z,19.80
2023-03-30T11:14:08.202Z,20.40
2023-03-30T11:19:20.378Z,20.40
2023-03-30T11:24:26.474Z,20.10
2023-03-30T11:29:37.723Z,20.00
2023-03-30T11:34:51.684Z,20.30
2023-03-30T11:40:00.255Z,20.90
2023-03-30T11:45:18.732Z,21.00
2023-03-30T11:50:31.905Z,22.00
2023-03-30T11:55:46.598Z,21.90
2023-03-30T12:00:55.289Z,21.60
2023-03-30T12:06:13.522Z,22.20
2023-03-30T12:11:22.966Z,23.00
2023-03-30T12:16:33.739Z,23.30
2023-03-30T12:21:45.695Z,24.10
2023-03-30T12:27:04.456Z,23.00
2023-03-30T12:32:21.943Z,22.40
2023-03-30T12:37:33.629Z,21.70
2023-03-30T12:42:47.165Z,21.00
2023-03-30T12:48:04.492Z,20.90
2023-03-30T12:53:28.876Z,20.90
2023-03-30T12:58:52.407Z,21.40
2023-03-30T13:04:00.715Z,21.70
2023-03-30T13:09:32.230Z,21.60
2023-03-30T13:14:46.507Z,20.80
2023-03-30T13:20:28.443Z,21.40
2023-03-30T13:25:45.547Z,20.90
2023-03-30T13:30:49.697Z,20.10
2023-03-30T13:36:03.874Z,19.20
2023-03-30T13:41:24.105Z,17.70
2023-03-30T13:46:33.077Z,15.60
2023-03-30T13:51:39.467Z,13.90
2023-03-30T13:56:49.559Z,12.60
2023-03-30T14:01:56.605Z,12.20
2023-03-30T14:07:05.613Z,12.10
2023-03-30T14:12:12.737Z,12.20
2023-03-30T14:17:21.879Z,12.10
2023-03-30T14:22:28.115Z,12.10
2023-03-30T14:27:38.598Z,11.90
2023-03-30T14:32:42.670Z,11.90
2023-03-30T14:37:52.039Z,11.70
2023-03-30T14:42:57.342Z,11.50
2023-03-30T14:48:01.292Z,11.50
2023-03-30T14:53:05.078Z,11.50
2023-03-30T14:58:15.023Z,11.50
2023-03-30T15:03:32.572Z,11.60
2023-03-30T15:08:39.653Z,11.60
2023-03-30T15:13:47.990Z,11.80
2023-03-30T15:18:52.960Z,12.00
2023-03-30T15:23:58.616Z,12.20
2023-03-30T15:29:04.625Z,12.30
2023-03-30T15:34:15.294Z,12.30
2023-03-30T15:39:21.447Z,12.30
2023-03-30T15:44:26.166Z,12.50
2023-03-30T15:49:37.045Z,12.60
2023-03-30T15:54:44.179Z,12.70
2023-03-30T15:59:52.624Z,12.70
2023-03-30T16:04:56.386Z,12.60
2023-03-30T16:10:01.171Z,12.60
2023-03-30T16:15:09.011Z,12.70
2023-03-30T16:20:16.412Z,12.60
2023-03-30T16:25:23.229Z,12.80
2023-03-30T16:30:36.195Z,13.10
2023-03-30T16:35:40.031Z,13.20
2023-03-30T16:40:45.624Z,13.00
2023-03-30T16:45:51.379Z,12.80
2023-03-30T16:50:57.354Z,12.80
2023-03-30T16:56:00.858Z,12.90
2023-03-30T17:01:06.117Z,13.00
2023-03-30T17:06:09.732Z,12.90
2023-03-30T17:11:13.829Z,12.70
2023-03-30T17:16:18.574Z,12.70
2023-03-30T17:21:23.007Z,12.40
2023-03-30T17:26:27.458Z,11.90
2023-03-30T17:31:32.479Z,11.60
2023-03-30T17:36:35.776Z,11.30
2023-03-30T17:41:39.107Z,11.20
2023-03-30T17:46:43.813Z,11.00
2023-03-30T17:51:47.342Z,10.80
2023-03-30T17:56:50.683Z,10.60
2023-03-30T18:01:55.520Z,10.40
2023-03-30T18:06:58.951Z,10.10
2023-03-30T18:12:02.436Z,10.10
2023-03-30T18:17:07.492Z,10.10
2023-03-30T18:22:11.421Z,10.20
2023-03-30T18:27:14.769Z,10.30
2023-03-30T18:32:19.561Z,10.30
2023-03-30T18:37:22.914Z,10.20
2023-03-30T18:42:26.639Z,10.10
2023-03-30T18:47:31.366Z,10.20
2023-03-30T18:52:35.003Z,10.30
2023-03-30T18:57:38.531Z,10.50
2023-03-30T19:02:43.581Z,10.60
2023-03-30T19:07:48.633Z,10.70
2023-03-30T19:12:54.700Z,10.40
2023-03-30T19:17:59.447Z,10.20
2023-03-30T19:23:03.110Z,10.00
2023-03-30T19:28:07.458Z,9.80
2023-03-30T19:33:16.370Z,9.80
2023-03-30T19:38:20.869Z,9.80
2023-03-30T19:43:24.225Z,9.70
2023-03-30T19:48:28.974Z,9.70
2023-03-30T19:53:32.447Z,9.60
2023-03-30T19:58:36.252Z,9.40
2023-03-30T20:03:40.992Z,9.20
2023-03-30T20:08:44.639Z,8.90
2023-03-30T20:13:48.253Z,8.70
2023-03-30T20:18:54.061Z,8.50
2023-03-30T20:23:59.396Z,8.40
2023-03-30T20:29:03.297Z,8.50
2023-03-30T20:34:10.105Z,8.70
2023-03-30T20:39:14.052Z,8.80
2023-03-30T20:44:18.147Z,8.80
2023-03-30T20:49:24.487Z,8.70
2023-03-30T20:54:27.888Z,8.60
2023-03-30T20:59:31.124Z,8.40
2023-03-30T21:04:36.533Z,8.50
2023-03-30T21:09:40.574Z,8.50
2023-03-30T21:14:45.890Z,8.50
2023-03-30T21:19:50.851Z,8.60
2023-03-30T21:24:54.137Z,8.60
2023-03-30T21:29:57.550Z,8.50
2023-03-30T21:35:02.431Z,8.60
2023-03-30T21:40:08.694Z,8.70
2023-03-30T21:45:12.610Z,8.90
2023-03-30T21:50:18.230Z,8.90
2023-03-30T21:55:21.528Z,9.20
2023-03-30T22:00:24.809Z,9.10
2023-03-30T22:05:29.811Z,9.20
2023-03-30T22:10:33.171Z,9.20
2023-03-30T22:15:36.822Z,9.20
2023-03-30T22:20:41.481Z,9.20
2023-03-30T22:25:44.788Z,9.20
2023-03-30T22:30:48.927Z,9.20
2023-03-30T22:35:54.458Z,9.10
2023-03-30T22:41:04.649Z,9.10
2023-03-30T22:46:10.756Z,9.10
2023-03-30T22:51:23.503Z,9.10
2023-03-30T22:56:28.494Z,9.00
2023-03-30T23:01:32.626Z,8.90
2023-03-30T23:06:38.205Z,8.80
2023-03-30T23:11:45.475Z,8.90
2023-03-30T23:16:48.929Z,9.00
2023-03-30T23:21:54.414Z,9.10
2023-03-30T23:26:58.068Z,9.00
2023-03-30T23:37:54.828Z,8.80
2023-03-30T23:42:58.124Z,8.60
2023-03-30T23:48:02.076Z,8.60
2023-03-30T23:53:07.389Z,8.60
2023-03-30T23:58:11.478Z,8.70
